Terminal Aerodrome Forecast
Issued by NWS

Home | Current Version | Previous Version | Text Only | Print | Product List | Glossary On
Versions: 1 2 3 4 5 6 7 8 9 10 11 12 13
000
FTUS45 KRIW 151133
TAFCPR
TAF
KCPR 151133Z 1512/1612 04008KT P6SM -SN OVC015
     FM151600 03006KT P6SM FEW025
     FM160200 22008KT P6SM SKC=

USA.gov is the U.S. government's official web portal to all federal, state and local government web resources and services.